SWA888 MWCR-MDPC
Flight info
| Callsign | SWA888 |
|---|---|
| Flight time | N/A |
| Altitude | 37000 |
| Route | NALRO2 NALRO UG633 SIA UT6 KEBET UL577 PAP UA890 ETBOD UL577 ANTEX ANTEX2B |
| Aircraft | B737/M-SDE2E3FGHIRWXY/LB1 |
Departure
| Time | 2026-05-07 14:53 |
|---|---|
| Airport | Owen Roberts International Airport (MWCR) |
Arrival
| Time | N/A |
|---|---|
| Airport | Punta Cana International Airport (MDPC) |
| Time | Latitude | Longitude | Altitude | Speed | Heading |
|---|---|---|---|---|---|
| 2026-05-07 14:33 | 19.29522 | -81.35770 | 14 ft | 0 kts | 346° |
| 2026-05-07 14:47 | 19.29512 | -81.35768 | 14 ft | 4 kts | 346° |
| 2026-05-07 14:47 | 19.29486 | -81.35761 | 17 ft | 4 kts | 346° |
| 2026-05-07 14:48 | 19.29465 | -81.35756 | 17 ft | 4 kts | 341° |
| 2026-05-07 14:48 | 19.29445 | -81.35740 | 17 ft | 4 kts | 313° |
| 2026-05-07 14:48 | 19.29440 | -81.35734 | 16 ft | 1 kts | 316° |
| 2026-05-07 14:50 | 19.29442 | -81.35738 | 16 ft | 5 kts | 300° |
| 2026-05-07 14:50 | 19.29425 | -81.35804 | 15 ft | 4 kts | 229° |
| 2026-05-07 14:50 | 19.29399 | -81.35817 | 14 ft | 5 kts | 183° |
| 2026-05-07 14:50 | 19.29333 | -81.35804 | 13 ft | 14 kts | 167° |
| 2026-05-07 14:51 | 19.29258 | -81.35863 | 13 ft | 17 kts | 255° |
| 2026-05-07 14:51 | 19.29226 | -81.35991 | 16 ft | 19 kts | 255° |
| 2026-05-07 14:51 | 19.29192 | -81.36134 | 15 ft | 21 kts | 257° |
| 2026-05-07 14:51 | 19.29153 | -81.36295 | 16 ft | 24 kts | 255° |
| 2026-05-07 14:52 | 19.29111 | -81.36471 | 16 ft | 26 kts | 256° |
| 2026-05-07 14:52 | 19.29082 | -81.36665 | 14 ft | 25 kts | 279° |
| 2026-05-07 14:52 | 19.29059 | -81.36752 | 15 ft | 14 kts | 167° |
| 2026-05-07 14:52 | 19.29054 | -81.36718 | 14 ft | 0 kts | 75° |
| 2026-05-07 14:53 | 19.29094 | -81.36552 | 15 ft | 63 kts | 76° |
| 2026-05-07 14:53 | 19.29273 | -81.35811 | 14 ft | 141 kts | 75° |
| 2026-05-07 14:53 | 19.29561 | -81.34639 | 351 ft | 180 kts | 77° |
| 2026-05-07 14:53 | 19.29891 | -81.33296 | 1052 ft | 198 kts | 77° |
| 2026-05-07 14:54 | 19.30222 | -81.31849 | 1849 ft | 209 kts | 79° |
| 2026-05-07 14:54 | 19.30147 | -81.30251 | 2386 ft | 227 kts | 108° |
| 2026-05-07 14:54 | 19.29510 | -81.28739 | 3202 ft | 230 kts | 120° |
| 2026-05-07 14:54 | 19.28591 | -81.27338 | 4003 ft | 241 kts | 129° |
| 2026-05-07 14:55 | 19.27417 | -81.25931 | 4632 ft | 261 kts | 130° |
| 2026-05-07 14:55 | 19.26215 | -81.24488 | 5693 ft | 263 kts | 130° |
| 2026-05-07 14:55 | 19.25008 | -81.23023 | 6732 ft | 263 kts | 130° |
| 2026-05-07 14:55 | 19.23798 | -81.21541 | 7625 ft | 271 kts | 130° |
| 2026-05-07 14:56 | 19.22545 | -81.20014 | 8452 ft | 278 kts | 130° |
| 2026-05-07 14:56 | 19.21263 | -81.18455 | 9130 ft | 290 kts | 131° |
| 2026-05-07 14:56 | 19.19969 | -81.16801 | 9987 ft | 294 kts | 121° |
| 2026-05-07 14:56 | 19.19223 | -81.14751 | 10559 ft | 308 kts | 103° |
| 2026-05-07 14:57 | 19.18769 | -81.12428 | 10743 ft | 335 kts | 100° |
| 2026-05-07 14:57 | 19.18359 | -81.09907 | 10934 ft | 359 kts | 99° |
| 2026-05-07 14:57 | 19.17944 | -81.07246 | 11398 ft | 371 kts | 99° |
| 2026-05-07 14:57 | 19.17517 | -81.04531 | 12081 ft | 376 kts | 99° |
| 2026-05-07 14:58 | 19.17076 | -81.01797 | 12819 ft | 379 kts | 99° |
| 2026-05-07 14:58 | 19.16621 | -80.99033 | 13525 ft | 383 kts | 99° |
| 2026-05-07 14:58 | 19.16153 | -80.96240 | 14166 ft | 386 kts | 99° |
| 2026-05-07 14:58 | 19.15682 | -80.93451 | 14908 ft | 385 kts | 99° |
| 2026-05-07 14:59 | 19.15210 | -80.90679 | 15700 ft | 383 kts | 99° |
| 2026-05-07 14:59 | 19.14734 | -80.87887 | 16243 ft | 387 kts | 99° |
| 2026-05-07 14:59 | 19.14253 | -80.85077 | 16822 ft | 390 kts | 99° |
| 2026-05-07 14:59 | 19.13770 | -80.82257 | 17469 ft | 390 kts | 99° |
| 2026-05-07 15:00 | 19.13285 | -80.79428 | 18109 ft | 390 kts | 99° |
| 2026-05-07 15:00 | 19.12805 | -80.76632 | 18610 ft | 392 kts | 99° |
| 2026-05-07 15:00 | 19.12315 | -80.73774 | 19024 ft | 396 kts | 99° |
| 2026-05-07 15:00 | 19.11820 | -80.70891 | 19418 ft | 400 kts | 98° |
| 2026-05-07 15:01 | 19.11321 | -80.67990 | 19828 ft | 403 kts | 98° |
| 2026-05-07 15:01 | 19.10815 | -80.65054 | 20231 ft | 406 kts | 98° |
| 2026-05-07 15:01 | 19.10306 | -80.62099 | 20640 ft | 409 kts | 98° |
| 2026-05-07 15:01 | 19.09795 | -80.59136 | 21031 ft | 412 kts | 98° |
| 2026-05-07 15:02 | 19.09278 | -80.56142 | 21411 ft | 415 kts | 98° |
| 2026-05-07 15:02 | 19.08756 | -80.53127 | 21777 ft | 418 kts | 98° |
| 2026-05-07 15:02 | 19.08232 | -80.50097 | 22104 ft | 422 kts | 98° |
| 2026-05-07 15:02 | 19.07701 | -80.47033 | 22458 ft | 425 kts | 98° |
| 2026-05-07 15:03 | 19.07167 | -80.43950 | 22810 ft | 427 kts | 98° |
| 2026-05-07 15:03 | 19.06635 | -80.40889 | 23138 ft | 430 kts | 98° |
| 2026-05-07 15:03 | 19.06093 | -80.37770 | 23461 ft | 433 kts | 98° |
| 2026-05-07 15:03 | 19.05547 | -80.34628 | 23748 ft | 435 kts | 97° |
| 2026-05-07 15:04 | 19.04995 | -80.31461 | 24012 ft | 438 kts | 97° |
| 2026-05-07 15:04 | 19.04443 | -80.28290 | 24294 ft | 439 kts | 97° |
| 2026-05-07 15:04 | 19.03888 | -80.25110 | 24558 ft | 441 kts | 97° |
| 2026-05-07 15:04 | 19.03328 | -80.21906 | 24812 ft | 444 kts | 97° |
| 2026-05-07 15:05 | 19.02744 | -80.18695 | 25061 ft | 446 kts | 99° |
| 2026-05-07 15:05 | 19.02054 | -80.15484 | 25307 ft | 449 kts | 100° |
| 2026-05-07 15:05 | 19.01316 | -80.12308 | 25525 ft | 452 kts | 101° |
| 2026-05-07 15:05 | 19.00551 | -80.09077 | 25774 ft | 454 kts | 101° |
| 2026-05-07 15:06 | 18.99784 | -80.05825 | 26028 ft | 456 kts | 101° |
| 2026-05-07 15:06 | 18.99025 | -80.02567 | 26270 ft | 458 kts | 101° |
| 2026-05-07 15:06 | 18.98271 | -79.99291 | 26508 ft | 460 kts | 100° |